KSAT - San Antonio Intl, TX, US

Issued at 2320 UTC 14 Aug 2020
Updated at 0215 UTC 15 Aug 2020
Potential Impact None Slight Moderate High
Time0151Z 15/03Z 15/04Z 15/05Z 15/06Z 15/07Z 15/08Z 15/09Z 15/10Z 15/11Z 15/12Z 15/13Z 15/14Z 15/15Z>>
Type OBS PRVL PRVL PRVL PRVL PRVL PRVL PRVL PRVL PRVL PRVL PRVL PRVL PRVL
VIS 10 >6 >6 >6 >6 >6 >6 >6 >6 >6 >6 >6 >6 >6
CIG -- -- -- -- -- -- -- -- -- -- -- -- -- --
Cover CLR SKC SKC SKC SKC SKC SKC SCT SCT SCT SCT SCT SCT SCT
FltCat VFR VFR VFR VFR VFR VFR VFR VFR VFR VFR VFR VFR VFR VFR
WX -- -- -- -- -- -- -- -- -- -- -- -- -- --
WDir 160 160 160 160 160 160 160 160 160 160 160 160 200 200
WSpd 9 10 10 10 10 10 10 7 7 7 7 7 8 8
WGst -- -- -- -- -- -- -- -- -- -- -- -- -- --
Raw TAF
KSAT 142320Z 1500/1606 16010KT P6SM SKC
  FM150900 16007KT P6SM SCT015
  FM151400 20008KT P6SM SCT015


Raw METAR
KSAT 150151Z 16009KT 10SM CLR 36/15 A2986 RMK AO2 SLP092 T03560150
KSAT 150051Z 14012KT 10SM CLR 37/14 A2985 RMK AO2 SLP086 T03670139
KSAT 142351Z 16011G15KT 10SM CLR 39/13 A2984 RMK AO2 SLP083 T03890128 10400 20350 56014

METAR Board
Radar Display
Forecast Discussion
For situational awareness. Not to be used for flight planning purposes.